createdAt,value
2023-01-09T00:01:36.611Z,84.76
2023-01-09T00:04:38.852Z,84.57
2023-01-09T00:07:41.189Z,84.69
2023-01-09T00:10:43.435Z,84.92
2023-01-09T00:13:45.688Z,85.33
2023-01-09T00:16:47.957Z,85.26
2023-01-09T00:19:50.190Z,85.53
2023-01-09T00:22:52.430Z,85.57
2023-01-09T00:26:17.745Z,86.17
2023-01-09T00:29:20.099Z,86.27
2023-01-09T00:32:22.312Z,86.06
2023-01-09T00:35:25.981Z,85.89
2023-01-09T00:38:28.270Z,85.41
2023-01-09T00:41:37.121Z,85.32
2023-01-09T00:44:47.753Z,85.44
2023-01-09T00:47:52.646Z,85.54
2023-01-09T00:50:58.669Z,85.23
2023-01-09T00:54:03.040Z,84.52
2023-01-09T00:57:05.413Z,84.14
2023-01-09T01:00:09.547Z,84.12
2023-01-09T01:03:12.038Z,84.03
2023-01-09T01:06:32.737Z,84.40
2023-01-09T01:09:34.977Z,84.45
2023-01-09T01:12:38.337Z,84.78
2023-01-09T01:15:41.994Z,84.78
2023-01-09T01:18:44.252Z,84.57
2023-01-09T01:21:46.488Z,84.58
2023-01-09T01:24:48.796Z,84.75
2023-01-09T01:27:51.648Z,84.75
2023-01-09T01:30:53.944Z,84.63
2023-01-09T01:33:57.555Z,84.77
2023-01-09T01:37:02.625Z,84.84
2023-01-09T01:40:07.393Z,84.81
2023-01-09T01:43:12.398Z,84.72
2023-01-09T01:46:17.368Z,84.80
2023-01-09T01:49:20.571Z,84.72
2023-01-09T01:52:24.637Z,84.57
2023-01-09T01:55:27.076Z,84.76
2023-01-09T01:58:30.510Z,84.91
2023-01-09T02:01:38.462Z,85.15
2023-01-09T02:04:40.981Z,85.47
2023-01-09T02:07:43.221Z,85.37
2023-01-09T02:10:46.073Z,85.54
2023-01-09T02:13:48.937Z,85.68
2023-01-09T02:17:14.257Z,85.99
2023-01-09T02:20:19.482Z,86.38
2023-01-09T02:23:33.715Z,86.83
2023-01-09T02:26:57.477Z,87.35
2023-01-09T02:30:14.817Z,87.88
2023-01-09T02:33:26.056Z,87.88
2023-01-09T02:36:33.676Z,87.85
2023-01-09T02:39:59.589Z,87.75
2023-01-09T02:43:02.444Z,87.77
2023-01-09T02:46:04.943Z,87.64
2023-01-09T02:49:07.960Z,87.93
2023-01-09T02:52:16.075Z,88.00
2023-01-09T02:55:42.823Z,87.83
2023-01-09T02:58:50.416Z,87.73
2023-01-09T03:01:52.678Z,87.64
2023-01-09T03:05:08.970Z,87.65
2023-01-09T03:08:24.696Z,87.57
2023-01-09T03:11:30.776Z,88.00
2023-01-09T03:14:33.939Z,88.29
2023-01-09T03:17:39.751Z,88.36
2023-01-09T03:20:43.432Z,88.24
2023-01-09T03:23:47.777Z,88.07
2023-01-09T03:26:50.621Z,87.72
2023-01-09T03:29:53.470Z,87.54
2023-01-09T03:32:56.502Z,87.37
2023-01-09T03:35:58.794Z,87.24
2023-01-09T03:39:01.004Z,87.10
2023-01-09T03:42:03.293Z,86.54
2023-01-09T03:45:06.443Z,86.52
2023-01-09T03:48:08.757Z,86.27
2023-01-09T03:51:10.984Z,86.03
2023-01-09T03:54:13.560Z,85.98
2023-01-09T03:57:15.761Z,85.72
2023-01-09T04:00:18.932Z,86.00
2023-01-09T04:03:21.315Z,85.77
2023-01-09T04:06:23.598Z,85.77
2023-01-09T04:09:26.040Z,85.44
2023-01-09T04:12:28.273Z,85.58
2023-01-09T04:15:30.511Z,85.78
2023-01-09T04:18:32.711Z,85.90
2023-01-09T04:21:34.911Z,86.21
2023-01-09T04:24:37.166Z,86.38
2023-01-09T04:27:39.396Z,85.94
2023-01-09T04:30:44.585Z,86.20
2023-01-09T04:33:47.198Z,86.63
2023-01-09T04:36:49.422Z,86.66
2023-01-09T04:39:54.918Z,86.51
2023-01-09T04:42:57.119Z,86.50
2023-01-09T04:45:59.380Z,86.68
2023-01-09T04:49:01.677Z,86.95
2023-01-09T04:52:04.068Z,86.88
2023-01-09T04:55:07.624Z,87.08
2023-01-09T04:58:09.910Z,87.29
2023-01-09T05:01:12.997Z,87.53
2023-01-09T05:04:15.417Z,87.66
2023-01-09T05:07:17.668Z,87.79
2023-01-09T05:10:19.905Z,87.74
2023-01-09T05:13:22.164Z,87.69
2023-01-09T05:16:24.480Z,87.76
2023-01-09T05:19:26.700Z,88.20
2023-01-09T05:22:28.935Z,87.67
2023-01-09T05:25:31.246Z,87.34
2023-01-09T05:28:33.569Z,86.88
2023-01-09T05:31:35.840Z,86.88
2023-01-09T05:34:38.033Z,86.71
2023-01-09T05:37:40.225Z,86.64
2023-01-09T05:40:42.431Z,87.03
2023-01-09T05:43:44.632Z,86.95
2023-01-09T05:46:46.873Z,87.05
2023-01-09T05:49:49.072Z,87.32
2023-01-09T05:52:51.319Z,86.97
2023-01-09T05:55:53.654Z,86.37
2023-01-09T05:58:55.909Z,85.98
2023-01-09T06:02:00.628Z,86.35
2023-01-09T06:05:03.012Z,86.03
2023-01-09T06:08:05.413Z,85.01
2023-01-09T06:11:07.692Z,85.57
2023-01-09T06:14:09.907Z,86.13
2023-01-09T06:17:12.273Z,85.73
2023-01-09T06:20:17.186Z,86.30
2023-01-09T06:23:19.393Z,86.22
2023-01-09T06:26:21.951Z,86.56
2023-01-09T06:29:27.232Z,87.09
2023-01-09T06:32:29.519Z,87.22
2023-01-09T06:35:31.792Z,87.22
2023-01-09T06:38:34.085Z,87.25
2023-01-09T06:41:37.242Z,87.34
2023-01-09T06:44:39.520Z,87.45
2023-01-09T06:47:41.765Z,87.52
2023-01-09T06:50:44.626Z,87.60
2023-01-09T06:53:47.057Z,87.91
2023-01-09T06:56:49.470Z,88.22
2023-01-09T06:59:54.546Z,88.21
2023-01-09T07:02:57.022Z,88.93
2023-01-09T07:05:59.301Z,88.59
2023-01-09T07:09:01.727Z,88.36
2023-01-09T07:12:04.799Z,88.86
2023-01-09T07:15:07.843Z,88.87
2023-01-09T07:18:13.089Z,89.54
2023-01-09T07:21:15.616Z,90.12
2023-01-09T07:24:18.010Z,90.63
2023-01-09T07:27:20.383Z,91.02
2023-01-09T07:30:22.744Z,91.29
2023-01-09T07:33:25.053Z,92.58
2023-01-09T07:36:27.457Z,92.43
2023-01-09T07:39:29.766Z,92.92
2023-01-09T07:42:35.141Z,93.62
2023-01-09T07:45:37.480Z,93.61
2023-01-09T07:48:39.812Z,93.84
2023-01-09T07:51:45.815Z,93.87
2023-01-09T07:54:48.111Z,93.94
2023-01-09T07:57:51.756Z,94.02
2023-01-09T08:00:54.722Z,94.51
2023-01-09T08:03:57.070Z,94.32
2023-01-09T08:07:03.804Z,94.69
2023-01-09T08:10:09.277Z,95.15
2023-01-09T08:13:11.754Z,94.59
2023-01-09T08:16:14.174Z,94.94
2023-01-09T08:19:21.315Z,95.32
2023-01-09T08:22:26.870Z,95.01
2023-01-09T08:25:29.737Z,95.12
2023-01-09T08:28:35.602Z,95.15
2023-01-09T08:31:38.087Z,95.53
2023-01-09T08:34:40.454Z,95.33
2023-01-09T08:37:47.328Z,95.09
2023-01-09T08:40:51.620Z,95.44
2023-01-09T08:44:15.224Z,95.28
2023-01-09T08:47:25.430Z,95.52
2023-01-09T08:50:27.617Z,95.11
2023-01-09T08:53:34.546Z,95.25
2023-01-09T08:56:48.030Z,95.15
2023-01-09T08:59:50.377Z,94.81
2023-01-09T09:02:53.591Z,94.65
2023-01-09T09:05:55.881Z,94.55
2023-01-09T09:09:03.099Z,94.33
2023-01-09T09:12:05.993Z,94.35
2023-01-09T09:15:24.327Z,94.42
2023-01-09T09:18:26.659Z,93.72
2023-01-09T09:21:28.873Z,93.88
2023-01-09T09:24:31.171Z,94.17
2023-01-09T09:27:33.993Z,93.96
2023-01-09T09:30:38.373Z,94.47
2023-01-09T09:33:50.951Z,93.60
2023-01-09T09:36:53.353Z,93.62
2023-01-09T09:39:56.795Z,93.11
2023-01-09T09:43:43.425Z,92.69
2023-01-09T09:47:23.425Z,93.64
2023-01-09T09:50:49.490Z,93.31
2023-01-09T09:53:56.965Z,93.48
2023-01-09T09:57:04.558Z,93.79
2023-01-09T10:00:19.305Z,93.44
2023-01-09T10:03:48.946Z,93.20
2023-01-09T10:06:56.523Z,93.74
2023-01-09T10:10:10.621Z,93.69
2023-01-09T10:13:36.476Z,93.59
2023-01-09T10:17:14.211Z,93.23
2023-01-09T10:20:31.588Z,93.03
2023-01-09T10:23:47.336Z,93.21
2023-01-09T10:26:54.175Z,93.02
2023-01-09T10:30:05.103Z,92.28
2023-01-09T10:33:16.472Z,92.97
2023-01-09T10:36:24.648Z,92.80
2023-01-09T10:39:42.803Z,93.16
2023-01-09T10:42:50.617Z,92.66
2023-01-09T10:45:58.389Z,92.82
2023-01-09T10:49:11.300Z,92.78
2023-01-09T10:52:30.124Z,92.78
2023-01-09T10:55:49.382Z,91.91
2023-01-09T10:58:53.985Z,90.91
2023-01-09T11:01:56.456Z,91.09
2023-01-09T11:05:01.188Z,90.66
2023-01-09T11:08:13.923Z,90.53
2023-01-09T11:11:35.047Z,89.60
2023-01-09T11:14:37.531Z,89.95
2023-01-09T11:17:42.513Z,90.03
2023-01-09T11:20:45.280Z,90.44
2023-01-09T11:23:47.540Z,89.84
2023-01-09T11:26:54.193Z,89.28
2023-01-09T11:30:16.789Z,88.40
2023-01-09T11:33:24.630Z,88.65
2023-01-09T11:36:28.551Z,88.07
2023-01-09T11:39:33.223Z,88.28
2023-01-09T11:42:53.687Z,87.94
2023-01-09T11:46:01.509Z,87.46
2023-01-09T11:49:16.777Z,87.28
2023-01-09T11:52:22.189Z,87.14
2023-01-09T11:55:29.315Z,86.42
2023-01-09T11:58:35.356Z,86.16
2023-01-09T12:01:56.522Z,85.88
2023-01-09T12:05:06.257Z,86.53
2023-01-09T12:08:50.321Z,86.31
2023-01-09T12:12:17.559Z,86.70
2023-01-09T12:15:43.597Z,86.04
2023-01-09T12:18:54.974Z,86.48
2023-01-09T12:22:18.149Z,86.84
2023-01-09T12:25:38.261Z,86.85
2023-01-09T12:28:52.201Z,86.96
2023-01-09T12:32:34.899Z,87.11
2023-01-09T12:35:49.416Z,87.21
2023-01-09T12:38:59.475Z,87.50
2023-01-09T12:42:24.822Z,87.17
2023-01-09T12:45:32.934Z,87.19
2023-01-09T12:48:47.275Z,87.32
2023-01-09T12:52:06.236Z,87.05
2023-01-09T12:55:27.201Z,87.46
2023-01-09T12:58:36.751Z,87.52
2023-01-09T13:01:45.368Z,87.27
2023-01-09T13:05:01.217Z,87.49
2023-01-09T13:08:20.497Z,87.79
2023-01-09T13:11:32.230Z,87.35
2023-01-09T13:14:48.967Z,87.16
2023-01-09T13:17:54.713Z,86.97
2023-01-09T13:20:57.439Z,86.77
2023-01-09T13:24:20.400Z,87.18
2023-01-09T13:27:24.884Z,87.27
2023-01-09T13:31:12.436Z,86.84
2023-01-09T13:34:22.538Z,86.83
2023-01-09T13:37:30.728Z,87.11
2023-01-09T13:40:34.780Z,86.42
2023-01-09T13:43:58.981Z,86.45
2023-01-09T13:47:03.418Z,86.51
2023-01-09T13:50:05.655Z,86.74
2023-01-09T13:53:19.869Z,86.74
2023-01-09T13:56:23.962Z,86.59
2023-01-09T13:59:28.698Z,87.18
2023-01-09T14:02:34.080Z,87.09
2023-01-09T14:05:36.350Z,87.82
2023-01-09T14:08:41.975Z,87.98
2023-01-09T14:11:44.421Z,87.78
2023-01-09T14:14:47.402Z,88.16
2023-01-09T14:18:02.748Z,88.28
2023-01-09T14:24:22.942Z,88.86
2023-01-09T14:27:55.884Z,89.17
2023-01-09T14:30:58.051Z,89.28
2023-01-09T14:34:36.017Z,89.68
2023-01-09T14:37:40.939Z,89.70
2023-01-09T14:41:17.625Z,89.87
2023-01-09T14:44:29.648Z,90.15
2023-01-09T14:47:31.841Z,90.55
2023-01-09T14:50:39.023Z,90.73
2023-01-09T14:53:42.826Z,90.85
2023-01-09T14:56:47.871Z,91.14
2023-01-09T15:00:03.207Z,91.19
2023-01-09T15:03:05.529Z,91.28
2023-01-09T15:06:14.442Z,91.32
2023-01-09T15:09:45.389Z,91.31
2023-01-09T15:12:50.361Z,91.18
2023-01-09T15:15:52.753Z,91.14
2023-01-09T15:19:04.915Z,90.81
2023-01-09T15:22:34.234Z,91.24
2023-01-09T15:25:39.924Z,91.16
2023-01-09T15:28:43.961Z,91.82
2023-01-09T15:31:51.917Z,92.51
2023-01-09T15:34:55.345Z,92.90
2023-01-09T15:37:58.436Z,93.12
2023-01-09T15:41:07.198Z,93.33
2023-01-09T15:44:28.100Z,93.65
2023-01-09T15:47:32.657Z,93.65
2023-01-09T15:50:34.929Z,93.82
2023-01-09T15:53:37.537Z,93.88
2023-01-09T15:56:39.875Z,94.24
2023-01-09T15:59:42.066Z,94.12
2023-01-09T16:03:04.951Z,94.47
2023-01-09T16:06:10.906Z,94.14
2023-01-09T16:09:27.087Z,94.02
2023-01-09T16:12:29.426Z,94.09
2023-01-09T16:15:34.748Z,94.31
2023-01-09T16:18:39.394Z,95.03
2023-01-09T16:21:41.809Z,94.39
2023-01-09T16:24:44.007Z,94.97
2023-01-09T16:28:26.843Z,94.23
2023-01-09T16:31:30.589Z,94.38
2023-01-09T16:34:36.526Z,94.42
2023-01-09T16:37:40.257Z,95.25
2023-01-09T16:41:23.976Z,95.10
2023-01-09T16:44:26.860Z,95.09
2023-01-09T16:47:29.086Z,94.64
2023-01-09T16:50:31.395Z,94.84
2023-01-09T16:53:33.656Z,94.80
2023-01-09T16:56:36.649Z,94.86
2023-01-09T16:59:38.922Z,95.49
2023-01-09T17:02:41.132Z,95.24
2023-01-09T17:05:43.850Z,95.66
2023-01-09T17:08:46.981Z,95.73
2023-01-09T17:11:49.197Z,96.28
2023-01-09T17:14:51.522Z,96.33
2023-01-09T17:17:53.717Z,96.44
2023-01-09T17:20:57.617Z,97.08
2023-01-09T17:24:18.383Z,96.86
2023-01-09T17:27:45.256Z,96.73
2023-01-09T17:30:47.571Z,97.12
2023-01-09T17:33:50.272Z,97.15
2023-01-09T17:36:55.582Z,97.54
2023-01-09T17:40:01.226Z,98.15
2023-01-09T17:43:03.606Z,97.74
2023-01-09T17:46:06.189Z,97.89
2023-01-09T17:49:15.604Z,97.99
2023-01-09T17:52:17.856Z,97.86
2023-01-09T17:55:20.280Z,97.90
2023-01-09T17:58:30.309Z,98.12
2023-01-09T18:01:32.681Z,98.03
2023-01-09T18:04:38.502Z,97.46
2023-01-09T18:07:40.737Z,98.16
2023-01-09T18:10:44.634Z,98.53
2023-01-09T18:13:48.337Z,99.05
2023-01-09T18:16:50.616Z,98.82
2023-01-09T18:19:52.862Z,98.57
2023-01-09T18:22:55.195Z,98.78
2023-01-09T18:25:57.406Z,98.52
2023-01-09T18:29:00.652Z,98.46
2023-01-09T18:32:03.038Z,98.46
2023-01-09T18:35:05.729Z,98.88
2023-01-09T18:38:08.388Z,98.93
2023-01-09T18:41:10.687Z,98.89
2023-01-09T18:44:13.081Z,98.72
2023-01-09T18:47:15.413Z,98.69
2023-01-09T18:50:17.793Z,98.08
2023-01-09T18:53:20.009Z,98.08
2023-01-09T18:56:23.355Z,98.73
2023-01-09T18:59:25.588Z,98.59
2023-01-09T19:02:27.838Z,98.19
2023-01-09T19:05:32.527Z,98.42
2023-01-09T19:08:36.268Z,98.25
2023-01-09T19:11:38.523Z,97.90
2023-01-09T19:14:40.778Z,98.01
2023-01-09T19:17:42.973Z,98.12
2023-01-09T19:20:45.185Z,98.45
2023-01-09T19:23:48.587Z,98.65
2023-01-09T19:26:51.254Z,98.61
2023-01-09T19:29:53.498Z,98.89
2023-01-09T19:32:55.847Z,98.96
2023-01-09T19:35:58.131Z,99.01
2023-01-09T19:39:01.963Z,98.74
2023-01-09T19:42:04.240Z,98.75
2023-01-09T19:45:07.239Z,99.07
2023-01-09T19:48:09.440Z,99.16
2023-01-09T19:51:13.229Z,98.88
2023-01-09T19:54:15.461Z,98.54
2023-01-09T19:57:17.727Z,98.89
2023-01-09T20:00:21.072Z,98.61
2023-01-09T20:03:25.726Z,98.51
2023-01-09T20:06:27.946Z,98.59
2023-01-09T20:09:30.345Z,98.35
2023-01-09T20:12:32.699Z,98.20
2023-01-09T20:15:35.049Z,98.12
2023-01-09T20:18:37.377Z,98.33
2023-01-09T20:21:40.211Z,97.60
2023-01-09T20:24:42.564Z,98.20
2023-01-09T20:27:44.816Z,98.23
2023-01-09T20:30:48.963Z,97.84
2023-01-09T20:33:51.416Z,97.85
2023-01-09T20:36:54.700Z,97.87
2023-01-09T20:39:57.076Z,97.95
2023-01-09T20:43:06.461Z,98.36
2023-01-09T20:46:09.406Z,98.56
2023-01-09T20:49:18.630Z,98.46
2023-01-09T20:52:22.620Z,99.16
2023-01-09T20:55:24.845Z,98.77
2023-01-09T20:58:28.650Z,98.51
2023-01-09T21:01:38.866Z,98.21
2023-01-09T21:04:41.094Z,98.04
2023-01-09T21:07:49.481Z,97.89
2023-01-09T21:10:57.374Z,97.81
2023-01-09T21:14:00.028Z,98.12
2023-01-09T21:17:02.305Z,98.16
2023-01-09T21:20:11.203Z,98.13
2023-01-09T21:23:13.429Z,98.33
2023-01-09T21:26:16.993Z,98.43
2023-01-09T21:29:19.254Z,98.28
2023-01-09T21:32:22.130Z,98.95
2023-01-09T21:35:24.365Z,99.41
2023-01-09T21:38:27.154Z,99.65
2023-01-09T21:41:47.997Z,99.58
2023-01-09T21:45:08.739Z,99.58
2023-01-09T21:48:12.186Z,99.58
2023-01-09T21:51:14.420Z,99.36
2023-01-09T21:54:16.704Z,99.16
2023-01-09T21:57:18.949Z,99.01
2023-01-09T22:00:21.339Z,98.59
2023-01-09T22:03:23.576Z,98.61
2023-01-09T22:06:26.033Z,98.57
2023-01-09T22:09:28.225Z,98.39
2023-01-09T22:12:30.533Z,98.81
2023-01-09T22:15:32.772Z,98.94
2023-01-09T22:18:36.417Z,99.61
2023-01-09T22:21:38.720Z,99.73
2023-01-09T22:24:40.971Z,99.28
2023-01-09T22:27:43.955Z,99.77
2023-01-09T22:30:46.227Z,99.92
2023-01-09T22:33:57.855Z,99.99
2023-01-09T22:37:00.212Z,99.64
2023-01-09T22:40:02.474Z,99.21
2023-01-09T22:43:05.247Z,99.24
2023-01-09T22:46:11.161Z,99.50
2023-01-09T22:49:14.231Z,99.56
2023-01-09T22:52:16.484Z,99.23
2023-01-09T22:55:18.705Z,99.09
2023-01-09T22:58:20.932Z,99.18
2023-01-09T23:01:23.093Z,98.95
2023-01-09T23:04:25.293Z,98.72
2023-01-09T23:07:27.722Z,98.29
2023-01-09T23:10:29.938Z,98.29
2023-01-09T23:13:32.374Z,98.59
2023-01-09T23:16:34.679Z,98.97
2023-01-09T23:19:37.653Z,98.78
2023-01-09T23:22:39.944Z,98.61
2023-01-09T23:25:50.953Z,98.73
2023-01-09T23:28:53.213Z,98.65
2023-01-09T23:31:55.817Z,99.00
2023-01-09T23:34:58.417Z,99.76
2023-01-09T23:38:00.831Z,99.99
2023-01-09T23:41:03.098Z,99.99
2023-01-09T23:44:05.336Z,99.99
2023-01-09T23:47:07.655Z,99.89
2023-01-09T23:50:10.906Z,99.94
2023-01-09T23:53:13.117Z,99.98
2023-01-09T23:56:15.330Z,99.75
2023-01-09T23:59:18.191Z,99.50
